createdAt,value
2022-12-19T00:00:28.271Z,3.21
2022-12-19T00:00:59.701Z,3.37
2022-12-19T00:01:31.185Z,2.70
2022-12-19T00:02:02.721Z,2.45
2022-12-19T00:02:34.306Z,3.31
2022-12-19T00:03:05.932Z,2.73
2022-12-19T00:03:37.547Z,2.92
2022-12-19T00:04:09.458Z,3.28
2022-12-19T00:04:40.924Z,3.09
2022-12-19T00:05:12.314Z,2.94
2022-12-19T00:05:43.729Z,3.13
2022-12-19T00:06:15.119Z,2.73
2022-12-19T00:06:46.515Z,3.04
2022-12-19T00:07:17.904Z,2.82
2022-12-19T00:07:49.306Z,2.47
2022-12-19T00:08:20.700Z,2.91
2022-12-19T00:08:52.102Z,2.92
2022-12-19T00:09:23.539Z,3.51
2022-12-19T00:09:54.956Z,2.84
2022-12-19T00:10:26.344Z,2.67
2022-12-19T00:10:57.731Z,2.66
2022-12-19T00:11:29.148Z,2.68
2022-12-19T00:12:00.549Z,2.47
2022-12-19T00:12:31.934Z,2.40
2022-12-19T00:13:03.348Z,2.78
2022-12-19T00:13:41.017Z,2.69
2022-12-19T00:14:12.833Z,2.98
2022-12-19T00:14:44.248Z,2.43
2022-12-19T00:15:15.640Z,2.81
2022-12-19T00:15:47.072Z,2.51
2022-12-19T00:16:18.975Z,2.98
2022-12-19T00:16:50.551Z,2.87
2022-12-19T00:17:22.055Z,2.53
2022-12-19T00:17:53.447Z,2.76
2022-12-19T00:18:24.840Z,2.66
2022-12-19T00:18:56.236Z,2.74
2022-12-19T00:19:27.631Z,3.10
2022-12-19T00:19:59.023Z,2.61
2022-12-19T00:20:30.431Z,2.62
2022-12-19T00:21:01.818Z,2.90
2022-12-19T00:21:34.672Z,2.60
2022-12-19T00:22:11.026Z,2.80
2022-12-19T00:22:42.733Z,2.53
2022-12-19T00:23:14.142Z,2.78
2022-12-19T00:23:45.526Z,2.87
2022-12-19T00:24:21.323Z,2.79
2022-12-19T00:24:53.331Z,2.30
2022-12-19T00:25:24.714Z,2.33
2022-12-19T00:25:56.407Z,2.17
2022-12-19T00:26:28.308Z,2.18
2022-12-19T00:26:59.699Z,2.86
2022-12-19T00:27:32.747Z,2.27
2022-12-19T00:28:04.131Z,2.18
2022-12-19T00:28:35.538Z,2.68
2022-12-19T00:29:12.598Z,2.72
2022-12-19T00:29:45.559Z,2.10
2022-12-19T00:30:17.025Z,2.27
2022-12-19T00:30:48.441Z,2.58
2022-12-19T00:31:19.937Z,2.73
2022-12-19T00:31:51.431Z,2.57
2022-12-19T00:32:22.890Z,2.58
2022-12-19T00:32:54.279Z,2.65
2022-12-19T00:33:25.671Z,2.26
2022-12-19T00:33:57.219Z,2.29
2022-12-19T00:34:28.619Z,2.54
2022-12-19T00:35:00.008Z,2.52
2022-12-19T00:35:33.223Z,2.58
2022-12-19T00:36:04.628Z,3.02
2022-12-19T00:36:36.019Z,2.37
2022-12-19T00:37:07.478Z,2.12
2022-12-19T00:37:40.623Z,2.24
2022-12-19T00:38:20.599Z,2.67
2022-12-19T00:38:51.990Z,2.37
2022-12-19T00:39:23.385Z,2.49
2022-12-19T00:39:54.795Z,2.36
2022-12-19T00:40:26.183Z,2.55
2022-12-19T00:40:57.634Z,2.28
2022-12-19T00:41:29.046Z,2.22
2022-12-19T00:42:00.446Z,2.88
2022-12-19T00:42:31.838Z,2.59
2022-12-19T00:43:03.223Z,2.59
2022-12-19T00:43:34.626Z,2.41
2022-12-19T00:44:06.011Z,2.75
2022-12-19T00:44:38.615Z,2.41
2022-12-19T00:45:10.003Z,2.83
2022-12-19T00:45:41.446Z,2.67
2022-12-19T00:46:12.970Z,2.28
2022-12-19T00:46:46.202Z,1.96
2022-12-19T00:47:23.972Z,2.44
2022-12-19T00:47:55.354Z,2.73
2022-12-19T00:48:26.747Z,2.61
2022-12-19T00:48:58.139Z,2.47
2022-12-19T00:49:29.527Z,2.82
2022-12-19T00:50:00.916Z,2.50
2022-12-19T00:50:32.312Z,2.80
2022-12-19T00:51:03.708Z,2.73
2022-12-19T00:51:36.303Z,2.60
2022-12-19T00:52:07.716Z,2.26
2022-12-19T00:52:39.121Z,2.68
2022-12-19T00:53:10.538Z,2.43
2022-12-19T00:53:41.943Z,2.20
2022-12-19T00:54:13.326Z,2.47
2022-12-19T00:54:46.140Z,2.31
2022-12-19T00:55:18.953Z,2.46
2022-12-19T00:55:50.925Z,2.28
2022-12-19T00:56:22.319Z,2.20
2022-12-19T00:56:53.832Z,2.76
2022-12-19T00:57:25.226Z,2.21
2022-12-19T00:57:56.639Z,2.28
2022-12-19T00:58:35.329Z,2.34
2022-12-19T00:59:07.073Z,2.33
2022-12-19T00:59:38.494Z,2.61
2022-12-19T01:00:09.893Z,2.52
2022-12-19T01:00:41.433Z,2.33
2022-12-19T01:01:14.750Z,2.25
2022-12-19T01:01:46.441Z,2.19
2022-12-19T01:02:18.131Z,2.40
2022-12-19T01:02:49.702Z,2.07
2022-12-19T01:03:21.242Z,2.26
2022-12-19T01:04:26.540Z,2.15
2022-12-19T01:04:44.113Z,2.24
2022-12-19T01:05:15.514Z,2.03
2022-12-19T01:05:46.920Z,2.00
2022-12-19T01:06:18.385Z,2.06
2022-12-19T01:06:49.905Z,2.06
2022-12-19T01:07:21.647Z,2.32
2022-12-19T01:07:53.047Z,2.38
2022-12-19T01:08:24.431Z,1.99
2022-12-19T01:08:57.102Z,2.15
2022-12-19T01:09:28.508Z,1.89
2022-12-19T01:09:59.920Z,1.90
2022-12-19T01:10:31.307Z,2.29
2022-12-19T01:11:02.693Z,2.31
2022-12-19T01:11:34.098Z,2.25
2022-12-19T01:12:05.599Z,2.73
2022-12-19T01:12:37.005Z,2.54
2022-12-19T01:13:08.406Z,2.69
2022-12-19T01:13:39.847Z,2.29
2022-12-19T01:14:19.014Z,2.29
2022-12-19T01:14:53.851Z,2.30
2022-12-19T01:15:25.235Z,2.27
2022-12-19T01:15:56.664Z,2.86
2022-12-19T01:16:28.147Z,2.28
2022-12-19T01:16:59.698Z,2.11
2022-12-19T01:17:31.082Z,2.25
2022-12-19T01:18:02.496Z,2.24
2022-12-19T01:18:33.883Z,2.28
2022-12-19T01:19:05.564Z,2.24
2022-12-19T01:19:43.794Z,2.18
2022-12-19T01:20:15.890Z,2.60
2022-12-19T01:20:47.326Z,2.30
2022-12-19T01:21:18.719Z,2.36
2022-12-19T01:21:50.128Z,2.54
2022-12-19T01:22:21.735Z,2.22
2022-12-19T01:22:53.126Z,2.69
2022-12-19T01:23:24.515Z,2.36
2022-12-19T01:23:55.917Z,2.83
2022-12-19T01:24:27.384Z,1.88
2022-12-19T01:24:58.786Z,2.15
2022-12-19T01:25:30.178Z,2.21
2022-12-19T01:26:01.567Z,2.33
2022-12-19T01:26:32.954Z,2.51
2022-12-19T01:27:04.359Z,2.11
2022-12-19T01:27:35.919Z,2.16
2022-12-19T01:28:07.319Z,2.11
2022-12-19T01:28:38.712Z,2.64
2022-12-19T01:29:10.124Z,2.65
2022-12-19T01:29:51.204Z,1.91
2022-12-19T01:30:24.339Z,2.18
2022-12-19T01:30:56.022Z,2.43
2022-12-19T01:31:27.487Z,2.00
2022-12-19T01:31:59.102Z,2.04
2022-12-19T01:32:30.531Z,1.94
2022-12-19T01:33:02.038Z,2.37
2022-12-19T01:33:33.448Z,2.16
2022-12-19T01:34:04.836Z,2.18
2022-12-19T01:34:36.898Z,2.25
2022-12-19T01:35:09.948Z,2.03
2022-12-19T01:35:52.050Z,2.39
2022-12-19T01:36:23.448Z,1.88
2022-12-19T01:36:54.830Z,2.19
2022-12-19T01:37:26.240Z,2.34
2022-12-19T01:38:07.970Z,1.98
2022-12-19T01:38:40.180Z,2.36
2022-12-19T01:39:11.567Z,1.94
2022-12-19T01:39:42.959Z,1.90
2022-12-19T01:40:16.310Z,2.48
2022-12-19T01:40:47.702Z,2.16
2022-12-19T01:41:19.088Z,2.36
2022-12-19T01:41:50.474Z,2.26
2022-12-19T01:42:23.480Z,1.85
2022-12-19T01:42:55.124Z,2.33
2022-12-19T01:43:26.517Z,2.07
2022-12-19T01:43:58.008Z,2.27
2022-12-19T01:44:29.405Z,2.15
2022-12-19T01:45:00.791Z,1.82
2022-12-19T01:45:34.913Z,2.09
2022-12-19T01:46:06.887Z,1.88
2022-12-19T01:46:38.359Z,1.96
2022-12-19T01:47:09.873Z,2.02
2022-12-19T01:47:41.258Z,2.25
2022-12-19T01:48:12.696Z,2.74
2022-12-19T01:48:44.083Z,2.38
2022-12-19T01:49:15.496Z,2.17
2022-12-19T01:49:48.463Z,2.14
2022-12-19T01:50:19.844Z,2.17
2022-12-19T01:51:01.182Z,2.36
2022-12-19T01:51:33.566Z,2.06
2022-12-19T01:52:04.974Z,1.86
2022-12-19T01:52:36.372Z,2.11
2022-12-19T01:53:07.836Z,2.33
2022-12-19T01:53:47.420Z,2.44
2022-12-19T01:54:20.908Z,2.17
2022-12-19T01:54:52.290Z,2.16
2022-12-19T01:55:23.691Z,2.00
2022-12-19T01:55:55.106Z,1.98
2022-12-19T01:56:26.488Z,2.16
2022-12-19T01:56:57.897Z,2.53
2022-12-19T01:57:29.354Z,2.35
2022-12-19T01:58:00.745Z,2.32
2022-12-19T01:58:32.167Z,2.06
2022-12-19T01:59:06.698Z,2.10
2022-12-19T01:59:38.441Z,1.66
2022-12-19T02:00:09.927Z,2.26
2022-12-19T02:00:41.352Z,2.26
2022-12-19T02:01:12.840Z,1.65
2022-12-19T02:01:51.641Z,1.91
2022-12-19T02:02:23.569Z,1.73
2022-12-19T02:02:55.078Z,2.04
2022-12-19T02:03:26.563Z,1.85
2022-12-19T02:03:58.012Z,1.54
2022-12-19T02:04:32.286Z,2.55
2022-12-19T02:05:04.097Z,1.86
2022-12-19T02:05:35.524Z,2.24
2022-12-19T02:06:06.945Z,1.69
2022-12-19T02:06:38.352Z,2.10
2022-12-19T02:07:15.728Z,1.78
2022-12-19T02:07:47.913Z,2.12
2022-12-19T02:08:19.310Z,1.94
2022-12-19T02:08:50.714Z,2.02
2022-12-19T02:09:22.178Z,2.04
2022-12-19T02:09:56.909Z,2.08
2022-12-19T02:10:28.888Z,2.41
2022-12-19T02:11:00.299Z,2.47
2022-12-19T02:11:31.695Z,1.91
2022-12-19T02:12:03.114Z,2.07
2022-12-19T02:12:34.517Z,2.15
2022-12-19T02:13:05.906Z,1.91
2022-12-19T02:13:37.309Z,1.57
2022-12-19T02:14:09.880Z,1.87
2022-12-19T02:14:41.384Z,1.90
2022-12-19T02:15:12.793Z,1.88
2022-12-19T02:15:44.213Z,1.80
2022-12-19T02:16:15.669Z,2.17
2022-12-19T02:16:47.115Z,2.26
2022-12-19T02:17:18.589Z,2.07
2022-12-19T02:17:52.726Z,1.86
2022-12-19T02:18:24.419Z,1.90
2022-12-19T02:18:55.815Z,1.99
2022-12-19T02:19:27.212Z,1.91
2022-12-19T02:19:58.735Z,1.36
2022-12-19T02:20:30.235Z,1.77
2022-12-19T02:21:01.733Z,1.58
2022-12-19T02:21:33.134Z,2.00
2022-12-19T02:22:04.540Z,2.04
2022-12-19T02:22:35.932Z,1.91
2022-12-19T02:23:07.341Z,1.95
2022-12-19T02:23:40.964Z,2.12
2022-12-19T02:24:12.357Z,2.18
2022-12-19T02:24:43.762Z,2.16
2022-12-19T02:25:15.260Z,1.74
2022-12-19T02:25:46.658Z,2.09
2022-12-19T02:26:19.908Z,1.67
2022-12-19T02:26:51.300Z,1.66
2022-12-19T02:27:22.695Z,1.85
2022-12-19T02:27:54.113Z,1.82
2022-12-19T02:28:25.520Z,1.65
2022-12-19T02:28:56.929Z,2.03
2022-12-19T02:29:28.342Z,1.76
2022-12-19T02:29:59.751Z,1.97
2022-12-19T02:30:31.245Z,2.12
2022-12-19T02:31:03.976Z,2.07
2022-12-19T02:31:43.310Z,2.05
2022-12-19T02:32:14.723Z,2.06
2022-12-19T02:32:46.128Z,1.67
2022-12-19T02:33:17.525Z,1.71
2022-12-19T02:33:49.093Z,1.96
2022-12-19T02:34:22.381Z,1.74
2022-12-19T02:34:53.781Z,2.00
2022-12-19T02:35:25.177Z,2.13
2022-12-19T02:35:56.665Z,1.98
2022-12-19T02:36:28.057Z,1.66
2022-12-19T02:36:59.452Z,1.84
2022-12-19T02:37:31.251Z,1.84
2022-12-19T02:38:02.641Z,2.13
2022-12-19T02:38:37.075Z,1.71
2022-12-19T02:39:08.478Z,1.67
2022-12-19T02:39:39.893Z,1.92
2022-12-19T02:40:11.309Z,1.71
2022-12-19T02:40:42.810Z,1.68
2022-12-19T02:41:14.199Z,1.88
2022-12-19T02:41:45.599Z,1.88
2022-12-19T02:42:17.017Z,1.70
2022-12-19T02:42:50.275Z,1.66
2022-12-19T02:43:21.672Z,2.16
2022-12-19T02:43:58.672Z,1.69
2022-12-19T02:44:30.522Z,1.88
2022-12-19T02:45:01.928Z,1.94
2022-12-19T02:45:33.349Z,1.93
2022-12-19T02:46:04.848Z,2.17
2022-12-19T02:46:36.254Z,1.60
2022-12-19T02:47:07.669Z,1.75
2022-12-19T02:47:39.078Z,1.69
2022-12-19T02:48:10.718Z,1.91
2022-12-19T02:48:43.092Z,2.03
2022-12-19T02:49:15.656Z,2.11
2022-12-19T02:49:52.878Z,1.88
2022-12-19T02:50:24.273Z,1.88
2022-12-19T02:50:55.670Z,1.95
2022-12-19T02:51:27.081Z,1.77
2022-12-19T02:51:58.499Z,1.84
2022-12-19T02:52:29.894Z,1.84
2022-12-19T02:53:01.330Z,1.89
2022-12-19T02:53:32.726Z,1.89
2022-12-19T02:54:04.126Z,1.99
2022-12-19T02:54:35.512Z,1.96
2022-12-19T02:55:07.036Z,1.79
2022-12-19T02:55:38.431Z,1.54
2022-12-19T02:56:10.599Z,2.16
2022-12-19T02:56:42.184Z,1.83
2022-12-19T02:57:13.579Z,1.64
2022-12-19T02:57:44.973Z,1.76
2022-12-19T02:58:16.364Z,2.12
2022-12-19T02:58:47.753Z,1.85
2022-12-19T02:59:19.299Z,1.66
2022-12-19T02:59:50.741Z,1.53
2022-12-19T03:00:23.788Z,1.98
2022-12-19T03:00:55.196Z,1.77
2022-12-19T03:01:26.659Z,1.64
2022-12-19T03:01:58.919Z,2.08
2022-12-19T03:02:30.572Z,2.14
2022-12-19T03:03:02.181Z,1.47
2022-12-19T03:03:33.694Z,1.87
2022-12-19T03:04:05.151Z,1.95
2022-12-19T03:04:36.615Z,1.85
2022-12-19T03:05:08.012Z,1.49
2022-12-19T03:05:39.464Z,1.81
2022-12-19T03:06:10.869Z,1.78
2022-12-19T03:06:42.273Z,1.99
2022-12-19T03:07:14.695Z,2.08
2022-12-19T03:07:46.116Z,1.62
2022-12-19T03:08:17.517Z,2.10
2022-12-19T03:08:48.930Z,2.01
2022-12-19T03:09:20.340Z,1.42
2022-12-19T03:09:51.741Z,1.52
2022-12-19T03:10:23.157Z,1.64
2022-12-19T03:10:54.649Z,1.53
2022-12-19T03:11:26.046Z,1.79
2022-12-19T03:11:57.437Z,1.33
2022-12-19T03:12:28.838Z,1.89
2022-12-19T03:13:00.227Z,1.86
2022-12-19T03:13:31.622Z,1.64
2022-12-19T03:14:03.044Z,1.88
2022-12-19T03:14:34.446Z,1.88
2022-12-19T03:15:05.849Z,1.71
2022-12-19T03:15:37.247Z,1.32
2022-12-19T03:16:08.814Z,1.41
2022-12-19T03:16:40.252Z,1.49
2022-12-19T03:17:11.701Z,1.53
2022-12-19T03:17:43.095Z,1.65
2022-12-19T03:18:14.517Z,1.59
2022-12-19T03:18:45.927Z,1.99
2022-12-19T03:19:17.341Z,1.86
2022-12-19T03:19:48.740Z,1.69
2022-12-19T03:20:20.157Z,2.05
2022-12-19T03:20:51.567Z,1.99
2022-12-19T03:21:23.085Z,1.77
2022-12-19T03:21:54.572Z,1.78
2022-12-19T03:22:25.997Z,1.60
2022-12-19T03:22:57.394Z,1.74
2022-12-19T03:23:28.797Z,1.76
2022-12-19T03:24:00.185Z,1.61
2022-12-19T03:24:31.576Z,1.72
2022-12-19T03:25:02.965Z,1.53
2022-12-19T03:25:34.372Z,1.68
2022-12-19T03:26:06.005Z,2.02
2022-12-19T03:26:37.472Z,1.71
2022-12-19T03:27:08.876Z,2.05
2022-12-19T03:27:40.286Z,1.61
2022-12-19T03:28:11.673Z,1.41
2022-12-19T03:28:43.103Z,1.92
2022-12-19T03:29:14.517Z,1.94
2022-12-19T03:29:46.156Z,2.01
2022-12-19T03:30:17.549Z,1.80
2022-12-19T03:30:48.957Z,1.40
2022-12-19T03:31:20.444Z,1.29
2022-12-19T03:31:51.960Z,1.59
2022-12-19T03:32:23.357Z,1.95
2022-12-19T03:32:54.777Z,2.02
2022-12-19T03:33:26.196Z,1.66
2022-12-19T03:33:57.595Z,1.51
2022-12-19T03:34:28.991Z,1.86
2022-12-19T03:35:00.433Z,1.64
2022-12-19T03:35:31.983Z,1.90
2022-12-19T03:36:03.416Z,1.53
2022-12-19T03:36:34.830Z,1.49
2022-12-19T03:37:06.240Z,1.53
2022-12-19T03:37:39.540Z,1.64
2022-12-19T03:38:10.960Z,1.77
2022-12-19T03:38:42.363Z,2.25
2022-12-19T03:39:13.785Z,1.73
2022-12-19T03:39:45.195Z,1.49
2022-12-19T03:40:16.863Z,1.43
2022-12-19T03:40:48.418Z,1.60
2022-12-19T03:41:19.811Z,1.66
2022-12-19T03:41:51.207Z,1.77
2022-12-19T03:42:22.655Z,2.10
2022-12-19T03:42:54.145Z,1.51
2022-12-19T03:43:25.544Z,1.63
2022-12-19T03:43:57.095Z,1.49
2022-12-19T03:44:28.629Z,1.52
2022-12-19T03:45:00.245Z,1.07
2022-12-19T03:45:31.813Z,1.25
2022-12-19T03:46:03.379Z,1.40
2022-12-19T03:46:34.877Z,1.38
2022-12-19T03:47:06.293Z,1.46
2022-12-19T03:47:38.096Z,1.69
2022-12-19T03:48:09.523Z,1.54
2022-12-19T03:48:40.918Z,1.44
2022-12-19T03:49:12.316Z,1.44
2022-12-19T03:49:43.707Z,1.56
2022-12-19T03:50:15.112Z,1.54
2022-12-19T03:50:46.518Z,1.53
2022-12-19T03:51:18.087Z,1.58
2022-12-19T03:51:49.481Z,1.96
2022-12-19T03:52:20.872Z,1.88
2022-12-19T03:52:52.265Z,1.56
2022-12-19T03:53:23.674Z,1.64
2022-12-19T03:53:55.095Z,1.44
2022-12-19T03:54:26.503Z,1.64
2022-12-19T03:54:57.955Z,1.40
2022-12-19T03:55:29.359Z,1.55
2022-12-19T03:56:01.310Z,1.41
2022-12-19T03:56:32.828Z,1.56
2022-12-19T03:57:04.232Z,1.58
2022-12-19T03:57:35.644Z,2.23
2022-12-19T03:58:07.071Z,1.85
2022-12-19T03:58:38.495Z,1.46
2022-12-19T03:59:09.898Z,1.52
2022-12-19T03:59:41.324Z,2.00
2022-12-19T04:00:12.736Z,1.77
2022-12-19T04:00:44.201Z,2.44
2022-12-19T04:01:15.670Z,1.94
2022-12-19T04:01:47.282Z,1.40
2022-12-19T04:02:18.834Z,1.83
2022-12-19T04:02:50.252Z,1.31
2022-12-19T04:03:21.692Z,1.58
2022-12-19T04:03:53.163Z,1.19
2022-12-19T04:04:24.616Z,1.69
2022-12-19T04:04:56.427Z,1.65
2022-12-19T04:05:27.825Z,1.42
2022-12-19T04:05:59.234Z,1.85
2022-12-19T04:06:30.690Z,1.46
2022-12-19T04:07:02.187Z,1.51
2022-12-19T04:07:33.593Z,1.42
2022-12-19T04:08:04.997Z,1.52
2022-12-19T04:08:36.411Z,1.42
2022-12-19T04:09:07.822Z,1.78
2022-12-19T04:09:39.222Z,1.68
2022-12-19T04:10:10.621Z,1.19
2022-12-19T04:10:42.019Z,1.65
2022-12-19T04:11:13.421Z,1.92
2022-12-19T04:11:44.832Z,1.41
2022-12-19T04:12:16.264Z,1.66
2022-12-19T04:12:47.669Z,1.50
2022-12-19T04:13:19.082Z,1.72
2022-12-19T04:13:50.495Z,1.56
2022-12-19T04:14:21.891Z,1.39
2022-12-19T04:14:53.658Z,1.81
2022-12-19T04:15:25.056Z,1.41
2022-12-19T04:15:56.544Z,1.55
2022-12-19T04:16:27.968Z,1.59
2022-12-19T04:16:59.358Z,1.65
2022-12-19T04:17:30.825Z,1.77
2022-12-19T04:18:02.234Z,1.67
2022-12-19T04:18:33.625Z,1.89
2022-12-19T04:19:05.037Z,1.92
2022-12-19T04:19:41.081Z,2.04
2022-12-19T04:20:13.990Z,1.54
2022-12-19T04:20:45.384Z,1.45
2022-12-19T04:21:16.803Z,1.61
2022-12-19T04:21:48.213Z,1.56
2022-12-19T04:22:19.772Z,1.96
2022-12-19T04:22:51.224Z,1.28
2022-12-19T04:23:22.647Z,1.46
2022-12-19T04:23:54.046Z,1.66
2022-12-19T04:24:25.445Z,1.27
2022-12-19T04:24:56.845Z,1.64
2022-12-19T04:25:29.716Z,1.11
2022-12-19T04:26:01.256Z,1.39
2022-12-19T04:26:32.647Z,1.21
2022-12-19T04:27:04.050Z,1.62
2022-12-19T04:27:35.449Z,1.36
2022-12-19T04:28:06.937Z,1.45
2022-12-19T04:28:38.332Z,1.73
2022-12-19T04:29:09.741Z,1.64
2022-12-19T04:29:41.223Z,1.38
2022-12-19T04:30:12.624Z,1.46
2022-12-19T04:30:44.121Z,1.85
2022-12-19T04:31:15.594Z,2.03
2022-12-19T04:31:47.033Z,1.59
2022-12-19T04:32:18.442Z,1.47
2022-12-19T04:32:49.862Z,1.49
2022-12-19T04:33:21.262Z,1.40
2022-12-19T04:33:52.713Z,1.56
2022-12-19T04:34:24.130Z,1.79
2022-12-19T04:34:55.598Z,2.04
2022-12-19T04:35:26.993Z,1.71
2022-12-19T04:35:58.391Z,1.53
2022-12-19T04:36:29.790Z,1.45
2022-12-19T04:37:01.194Z,1.40
2022-12-19T04:37:32.609Z,1.38
2022-12-19T04:38:04.007Z,1.74
2022-12-19T04:38:35.990Z,1.37
2022-12-19T04:39:07.414Z,1.90
2022-12-19T04:39:38.829Z,1.72
2022-12-19T04:40:10.266Z,1.49
2022-12-19T04:40:41.966Z,1.42
2022-12-19T04:41:13.472Z,1.84
2022-12-19T04:41:44.868Z,1.69
2022-12-19T04:42:16.284Z,1.57
2022-12-19T04:42:47.681Z,1.69
2022-12-19T04:43:19.080Z,1.34
2022-12-19T04:43:50.496Z,1.32
2022-12-19T04:44:21.919Z,1.55
2022-12-19T04:44:53.324Z,1.69
2022-12-19T04:45:24.863Z,1.80
2022-12-19T04:45:57.778Z,1.63
2022-12-19T04:46:29.371Z,2.10
2022-12-19T04:47:00.820Z,1.82
2022-12-19T04:47:32.254Z,1.47
2022-12-19T04:48:03.671Z,1.66
2022-12-19T04:48:35.071Z,1.73
2022-12-19T04:49:06.465Z,1.60
2022-12-19T04:49:38.017Z,1.63
2022-12-19T04:50:09.421Z,1.51
2022-12-19T04:50:40.944Z,1.54
2022-12-19T04:51:12.361Z,1.64
2022-12-19T04:51:43.762Z,1.53
2022-12-19T04:52:15.283Z,1.54
2022-12-19T04:52:46.702Z,1.47
2022-12-19T04:53:18.124Z,1.47
2022-12-19T04:53:49.541Z,1.38
2022-12-19T04:54:20.933Z,1.48
2022-12-19T04:54:52.336Z,1.45
2022-12-19T04:55:23.757Z,1.48
2022-12-19T04:55:55.210Z,1.29
2022-12-19T04:56:26.610Z,1.84
2022-12-19T04:56:58.027Z,1.32
2022-12-19T04:57:30.247Z,1.21
2022-12-19T04:58:01.725Z,1.02
2022-12-19T04:58:33.127Z,1.68
2022-12-19T04:59:04.548Z,1.37
2022-12-19T04:59:35.941Z,1.49
2022-12-19T05:00:07.360Z,1.74
2022-12-19T05:00:38.769Z,1.89
2022-12-19T05:01:10.301Z,1.47
2022-12-19T05:01:41.858Z,1.35
2022-12-19T05:02:13.385Z,1.48
2022-12-19T05:02:45.054Z,1.75
2022-12-19T05:03:16.635Z,1.32
2022-12-19T05:03:54.056Z,1.50
2022-12-19T05:04:26.598Z,1.65
2022-12-19T05:04:58.636Z,1.35
2022-12-19T05:05:30.207Z,1.58
2022-12-19T05:06:01.654Z,1.73
2022-12-19T05:06:33.054Z,1.58
2022-12-19T05:07:04.454Z,1.46
2022-12-19T05:07:35.879Z,1.55
2022-12-19T05:08:07.271Z,1.59
2022-12-19T05:08:38.685Z,1.57
2022-12-19T05:09:10.077Z,1.58
2022-12-19T05:09:41.480Z,1.41
2022-12-19T05:10:12.871Z,1.29
2022-12-19T05:10:44.300Z,1.23
2022-12-19T05:11:19.681Z,1.65
2022-12-19T05:11:51.522Z,1.23
2022-12-19T05:12:22.938Z,1.42
2022-12-19T05:12:54.334Z,1.64
2022-12-19T05:13:25.758Z,1.43
2022-12-19T05:13:57.165Z,1.41
2022-12-19T05:14:28.590Z,1.19
2022-12-19T05:15:00.165Z,1.28
2022-12-19T05:15:31.591Z,1.42
2022-12-19T05:16:03.060Z,1.48
2022-12-19T05:16:34.655Z,1.46
2022-12-19T05:17:06.067Z,1.63
2022-12-19T05:17:37.486Z,1.90
2022-12-19T05:18:08.887Z,1.59
2022-12-19T05:18:40.300Z,1.41
2022-12-19T05:19:11.726Z,1.37
2022-12-19T05:19:43.121Z,1.54
2022-12-19T05:20:14.551Z,1.39
2022-12-19T05:20:45.969Z,1.53
2022-12-19T05:21:17.758Z,1.57
2022-12-19T05:21:49.368Z,1.26
2022-12-19T05:22:20.762Z,1.72
2022-12-19T05:22:52.171Z,2.09
2022-12-19T05:23:23.596Z,1.35
2022-12-19T05:23:54.997Z,1.38
2022-12-19T05:24:26.427Z,1.39
2022-12-19T05:24:57.850Z,1.60
2022-12-19T05:25:29.237Z,1.48
2022-12-19T05:26:00.645Z,1.40
2022-12-19T05:26:32.040Z,1.70
2022-12-19T05:27:03.709Z,1.86
2022-12-19T05:27:35.096Z,1.46
2022-12-19T05:28:06.493Z,1.34
2022-12-19T05:28:37.881Z,1.60
2022-12-19T05:29:09.301Z,1.30
2022-12-19T05:29:40.713Z,1.43
2022-12-19T05:30:12.112Z,1.30
2022-12-19T05:30:47.767Z,1.29
2022-12-19T05:31:22.097Z,1.52
2022-12-19T05:31:53.531Z,1.65
2022-12-19T05:32:25.047Z,1.42
2022-12-19T05:32:56.456Z,1.72
2022-12-19T05:33:27.869Z,1.64
2022-12-19T05:33:59.267Z,1.46
2022-12-19T05:34:30.664Z,1.62
2022-12-19T05:35:02.100Z,1.40
2022-12-19T05:35:33.496Z,1.80
2022-12-19T05:36:04.920Z,1.49
2022-12-19T05:36:36.319Z,1.33
2022-12-19T05:37:07.704Z,1.41
2022-12-19T05:37:39.183Z,1.59
2022-12-19T05:38:10.580Z,1.46
2022-12-19T05:38:41.986Z,1.46
2022-12-19T05:39:13.403Z,1.62
2022-12-19T05:39:44.815Z,1.39
2022-12-19T05:40:16.226Z,1.49
2022-12-19T05:40:47.640Z,1.72
2022-12-19T05:41:19.036Z,2.07
2022-12-19T05:41:50.434Z,1.37
2022-12-19T05:42:21.838Z,1.51
2022-12-19T05:42:53.350Z,1.31
2022-12-19T05:43:24.748Z,1.40
2022-12-19T05:43:56.210Z,1.51
2022-12-19T05:44:27.631Z,1.64
2022-12-19T05:44:59.026Z,1.87
2022-12-19T05:45:30.441Z,1.93
2022-12-19T05:46:01.834Z,1.66
2022-12-19T05:46:33.307Z,1.59
2022-12-19T05:47:04.741Z,1.70
2022-12-19T05:47:37.980Z,1.57
2022-12-19T05:48:09.673Z,1.38
2022-12-19T05:48:41.083Z,1.54
2022-12-19T05:49:12.655Z,1.56
2022-12-19T05:49:44.465Z,1.56
2022-12-19T05:50:15.871Z,1.59
2022-12-19T05:50:47.259Z,1.42
2022-12-19T05:51:18.670Z,1.42
2022-12-19T05:51:50.078Z,1.21
2022-12-19T05:52:21.474Z,1.42
2022-12-19T05:52:52.870Z,1.50
2022-12-19T05:53:26.053Z,1.65
2022-12-19T05:53:57.707Z,1.38
2022-12-19T05:54:29.121Z,1.48
2022-12-19T05:55:01.077Z,1.40
2022-12-19T05:55:32.467Z,1.67
2022-12-19T05:56:03.867Z,1.26
2022-12-19T05:56:35.277Z,1.52
2022-12-19T05:57:06.672Z,1.37
2022-12-19T05:57:38.091Z,1.43
2022-12-19T05:58:09.486Z,1.45
2022-12-19T05:58:40.953Z,1.41
2022-12-19T05:59:12.356Z,1.53
2022-12-19T05:59:43.753Z,1.68
2022-12-19T06:00:15.147Z,1.28
2022-12-19T06:00:46.547Z,1.48
2022-12-19T06:01:17.977Z,1.41
2022-12-19T06:01:49.525Z,1.37
2022-12-19T06:02:21.133Z,1.45
2022-12-19T06:02:52.782Z,1.42
2022-12-19T06:03:24.316Z,1.65
2022-12-19T06:03:55.929Z,1.40
2022-12-19T06:04:27.387Z,1.43
2022-12-19T06:04:59.277Z,1.31
2022-12-19T06:05:30.703Z,1.13
2022-12-19T06:06:02.114Z,1.46
2022-12-19T06:06:33.510Z,1.32
2022-12-19T06:07:04.966Z,1.32
2022-12-19T06:07:36.368Z,1.14
2022-12-19T06:08:07.787Z,1.49
2022-12-19T06:08:39.210Z,1.53
2022-12-19T06:09:10.724Z,1.42
2022-12-19T06:09:42.118Z,1.40
2022-12-19T06:10:13.513Z,1.27
2022-12-19T06:10:44.905Z,1.44
2022-12-19T06:11:16.301Z,1.57
2022-12-19T06:11:47.693Z,1.31
2022-12-19T06:12:19.083Z,1.39
2022-12-19T06:12:50.499Z,1.52
2022-12-19T06:13:25.027Z,1.41
2022-12-19T06:13:56.616Z,1.36
2022-12-19T06:14:28.147Z,1.60
2022-12-19T06:14:59.557Z,1.59
2022-12-19T06:15:30.992Z,1.61
2022-12-19T06:16:02.536Z,1.53
2022-12-19T06:16:34.047Z,1.54
2022-12-19T06:17:05.492Z,1.50
2022-12-19T06:17:36.890Z,1.41
2022-12-19T06:18:08.291Z,1.30
2022-12-19T06:18:44.307Z,1.74
2022-12-19T06:19:16.370Z,1.55
2022-12-19T06:19:47.799Z,1.23
2022-12-19T06:20:19.204Z,1.49
2022-12-19T06:20:50.613Z,1.27
2022-12-19T06:21:22.013Z,1.23
2022-12-19T06:21:53.424Z,1.81
2022-12-19T06:22:25.695Z,1.43
2022-12-19T06:22:57.095Z,1.17
2022-12-19T06:23:28.489Z,1.12
2022-12-19T06:23:59.944Z,1.27
2022-12-19T06:24:31.397Z,1.15
2022-12-19T06:25:02.840Z,1.43
2022-12-19T06:25:34.226Z,1.40
2022-12-19T06:26:05.647Z,1.73
2022-12-19T06:26:37.055Z,1.55
2022-12-19T06:27:08.469Z,1.72
2022-12-19T06:27:39.889Z,1.63
2022-12-19T06:28:11.309Z,1.61
2022-12-19T06:28:42.713Z,1.61
2022-12-19T06:29:14.306Z,1.59
2022-12-19T06:29:45.761Z,1.35
2022-12-19T06:30:17.190Z,1.25
2022-12-19T06:30:48.598Z,1.64
2022-12-19T06:31:20.027Z,1.49
2022-12-19T06:31:51.497Z,1.24
2022-12-19T06:32:22.919Z,1.22
2022-12-19T06:32:54.372Z,1.19
2022-12-19T06:33:25.775Z,1.19
2022-12-19T06:33:57.191Z,1.42
2022-12-19T06:35:02.232Z,1.40
2022-12-19T06:35:20.082Z,1.31
2022-12-19T06:35:51.476Z,1.38
2022-12-19T06:36:22.885Z,1.36
2022-12-19T06:36:54.274Z,1.46
2022-12-19T06:37:25.680Z,1.62
2022-12-19T06:38:00.935Z,1.10
2022-12-19T06:38:32.602Z,1.32
2022-12-19T06:39:04.013Z,1.49
2022-12-19T06:39:35.424Z,1.37
2022-12-19T06:40:06.900Z,1.60
2022-12-19T06:40:38.319Z,1.27
2022-12-19T06:41:09.741Z,1.20
2022-12-19T06:41:41.145Z,1.47
2022-12-19T06:42:12.634Z,1.43
2022-12-19T06:42:44.022Z,1.24
2022-12-19T06:43:15.426Z,1.93
2022-12-19T06:43:49.185Z,1.71
2022-12-19T06:44:24.636Z,1.33
2022-12-19T06:44:56.501Z,1.72
2022-12-19T06:45:28.068Z,1.43
2022-12-19T06:45:59.514Z,1.33
2022-12-19T06:46:30.939Z,1.16
2022-12-19T06:47:02.365Z,1.80
2022-12-19T06:47:33.777Z,1.79
2022-12-19T06:48:05.168Z,1.28
2022-12-19T06:48:36.585Z,1.42
2022-12-19T06:49:07.999Z,1.55
2022-12-19T06:49:39.392Z,1.48
2022-12-19T06:50:10.809Z,1.45
2022-12-19T06:50:42.305Z,1.69
2022-12-19T06:51:13.718Z,1.55
2022-12-19T06:51:45.134Z,1.47
2022-12-19T06:52:17.063Z,1.46
2022-12-19T06:52:48.462Z,1.36
2022-12-19T06:53:19.992Z,1.50
2022-12-19T06:53:51.631Z,1.48
2022-12-19T06:54:23.059Z,1.69
2022-12-19T06:54:54.468Z,1.81
2022-12-19T06:55:25.865Z,1.69
2022-12-19T06:55:57.312Z,1.60
2022-12-19T06:56:28.711Z,1.21
2022-12-19T06:57:00.189Z,1.27
2022-12-19T06:57:31.597Z,1.34
2022-12-19T06:58:03.018Z,1.52
2022-12-19T06:58:34.441Z,1.46
2022-12-19T06:59:05.837Z,1.61
2022-12-19T06:59:37.236Z,1.43
2022-12-19T07:00:08.648Z,1.83
2022-12-19T07:00:40.089Z,1.73
2022-12-19T07:01:11.695Z,1.37
2022-12-19T07:01:43.196Z,1.70
2022-12-19T07:02:14.774Z,1.54
2022-12-19T07:02:46.393Z,1.61
2022-12-19T07:03:17.903Z,1.73
2022-12-19T07:03:49.320Z,1.47